Time;durP1;ratioP1;P1;durP2;ratioP2;P2;SDS_P1;SDS_P2;PMS_P1;PMS_P2;Temp;Humidity;BMP_temperature;BMP_pressure;BME280_temperature;BME280_humidity;BME280_pressure;Samples;Min_cycle;Max_cycle;Signal;HPM_P1;HPM_P2
2022/01/05 00:00:00;;;;;;;;;;;;;;;5.25;nan;98913.97;5031644;28;19923;-89
2022/01/05 00:02:26;;;;;;;;;;;;;;;5.30;nan;98903.84;5013703;28;20342;-90
2022/01/05 00:04:51;;;;;;;;;;;;;;;5.31;nan;98902.03;5011835;28;19968;-88
2022/01/05 00:07:16;;;;;;;;;;;;;;;5.30;nan;98889.91;5020485;28;19955;-88
2022/01/05 00:09:42;;;;;;;;;;;;;;;5.30;nan;98895.97;5032056;28;19917;-87
2022/01/05 00:12:08;;;;;;;;;;;;;;;5.33;nan;98886.97;5029858;28;19917;-87
2022/01/05 00:14:33;;;;;;;;;;;;;;;5.28;nan;98881.38;5013256;28;19924;-88
2022/01/05 00:16:58;;;;;;;;;;;;;;;5.23;nan;98871.38;5031931;28;20012;-88
2022/01/05 00:19:24;;;;;;;;;;;;;;;5.23;nan;98874.00;5031245;28;19928;-88
2022/01/05 00:21:49;;;;;;;;;;;;;;;5.28;nan;98871.72;5021202;28;19948;-89
2022/01/05 00:24:14;;;;;;;;;;;;;;;5.26;nan;98875.47;5041136;28;19968;-89
2022/01/05 00:26:43;;;;;;;;;;;;;;;5.25;nan;98884.31;5031158;28;19972;-89
2022/01/05 00:29:08;;;;;;;;;;;;;;;5.24;nan;98873.03;5016118;28;19917;-89
2022/01/05 00:31:34;;;;;;;;;;;;;;;5.27;nan;98871.91;5013257;28;19918;-88
2022/01/05 00:33:59;;;;;;;;;;;;;;;5.27;nan;98872.72;5013799;28;19967;-89
2022/01/05 00:36:24;;;;;;;;;;;;;;;5.22;nan;98888.09;5013835;28;19918;-89
2022/01/05 00:38:50;;;;;;;;;;;;;;;5.21;nan;98883.00;5024145;28;19918;-89
2022/01/05 00:41:15;;;;;;;;;;;;;;;5.22;nan;98869.75;4988120;28;19921;-89
2022/01/05 00:43:46;;;;;;;;;;;;;;;5.04;nan;98869.00;4991589;28;19933;-88
2022/01/05 00:46:11;;;;;;;;;;;;;;;5.14;nan;98864.47;5010946;28;19925;-89
2022/01/05 00:48:37;;;;;;;;;;;;;;;5.18;nan;98857.13;5027523;28;20288;-89
2022/01/05 00:51:03;;;;;;;;;;;;;;;5.18;nan;98852.69;5029021;28;19991;-89
2022/01/05 00:53:29;;;;;;;;;;;;;;;5.23;nan;98850.41;5012853;28;19976;-89
2022/01/05 00:55:54;;;;;;;;;;;;;;;5.28;nan;98860.41;4985097;28;19960;-89
2022/01/05 00:58:20;;;;;;;;;;;;;;;5.22;nan;98868.91;5003455;28;19922;-89
2022/01/05 01:00:45;;;;;;;;;;;;;;;5.28;nan;98863.03;5025528;28;19918;-88
2022/01/05 01:03:13;;;;;;;;;;;;;;;5.28;nan;98868.28;5001207;28;19953;-88
2022/01/05 01:05:39;;;;;;;;;;;;;;;5.26;nan;98872.84;5016607;28;20418;-88
2022/01/05 01:08:04;;;;;;;;;;;;;;;5.24;nan;98869.56;4994836;28;19918;-88
2022/01/05 01:10:29;;;;;;;;;;;;;;;5.27;nan;98862.22;5016995;28;20018;-89
2022/01/05 01:12:55;;;;;;;;;;;;;;;5.33;nan;98858.94;4997219;28;19943;-88
2022/01/05 01:15:20;;;;;;;;;;;;;;;5.30;nan;98871.56;5012276;28;19929;-88
2022/01/05 01:17:46;;;;;;;;;;;;;;;5.28;nan;98879.56;4990472;28;19925;-88
2022/01/05 01:20:11;;;;;;;;;;;;;;;5.32;nan;98878.28;4999560;28;19921;-88
2022/01/05 01:22:37;;;;;;;;;;;;;;;5.28;nan;98889.25;5020028;28;19922;-89
2022/01/05 01:25:03;;;;;;;;;;;;;;;5.40;nan;98884.53;5024720;28;19944;-88
2022/01/05 01:27:28;;;;;;;;;;;;;;;5.30;nan;98890.72;5020913;28;20012;-88
2022/01/05 01:29:54;;;;;;;;;;;;;;;5.39;nan;98896.00;5015581;28;20437;-89
2022/01/05 01:32:19;;;;;;;;;;;;;;;5.40;nan;98901.06;5024776;28;20024;-88
2022/01/05 01:34:44;;;;;;;;;;;;;;;5.37;nan;98906.66;5035591;28;20045;-89
2022/01/05 01:37:10;;;;;;;;;;;;;;;5.38;nan;98903.03;5029543;28;19968;-89
2022/01/05 01:39:35;;;;;;;;;;;;;;;5.35;nan;98892.88;5026224;28;20306;-89
2022/01/05 01:42:01;;;;;;;;;;;;;;;5.43;nan;98899.94;5024143;28;20348;-88
2022/01/05 01:44:26;;;;;;;;;;;;;;;5.40;nan;98905.50;5021940;28;20324;-88
2022/01/05 01:46:53;;;;;;;;;;;;;;;5.32;nan;98911.53;5039245;28;19932;-88
2022/01/05 01:49:18;;;;;;;;;;;;;;;5.32;nan;98891.41;5029988;28;19925;-88
2022/01/05 01:51:43;;;;;;;;;;;;;;;5.37;nan;98905.84;5031484;28;19937;-88
2022/01/05 01:54:09;;;;;;;;;;;;;;;5.38;nan;98907.47;5032711;28;19921;-88
2022/01/05 01:56:34;;;;;;;;;;;;;;;5.36;nan;98909.41;5026946;28;19921;-88
2022/01/05 01:59:00;;;;;;;;;;;;;;;5.40;nan;98916.81;5019201;28;19982;-87
2022/01/05 02:01:25;;;;;;;;;;;;;;;5.38;nan;98912.72;5022871;28;19940;-88
2022/01/05 02:03:51;;;;;;;;;;;;;;;5.35;nan;98903.34;5031553;28;20112;-88
2022/01/05 02:06:16;;;;;;;;;;;;;;;5.38;nan;98908.28;5030540;28;19944;-87
2022/01/05 02:08:42;;;;;;;;;;;;;;;5.39;nan;98904.69;5026390;28;19941;-88
2022/01/05 02:11:08;;;;;;;;;;;;;;;5.42;nan;98903.56;5033559;28;19928;-88
2022/01/05 02:13:34;;;;;;;;;;;;;;;5.37;nan;98903.22;5035596;28;19917;-88
2022/01/05 02:15:59;;;;;;;;;;;;;;;5.35;nan;98905.16;5031961;28;19921;-88
2022/01/05 02:20:58;;;;;;;;;;;;;;;5.44;nan;98905.03;5033753;28;19921;-88
2022/01/05 02:23:23;;;;;;;;;;;;;;;5.42;nan;98911.41;5032554;28;19921;-88
2022/01/05 02:25:48;;;;;;;;;;;;;;;5.47;nan;98923.06;5030135;28;19921;-88
2022/01/05 02:28:13;;;;;;;;;;;;;;;5.45;nan;98908.47;5032192;28;19921;-88
2022/01/05 02:30:39;;;;;;;;;;;;;;;5.42;nan;98904.38;5030810;28;19921;-87
2022/01/05 02:33:04;;;;;;;;;;;;;;;5.47;nan;98902.09;5023148;28;19929;-88
2022/01/05 02:35:30;;;;;;;;;;;;;;;5.47;nan;98914.38;5016301;28;19928;-88
2022/01/05 02:37:55;;;;;;;;;;;;;;;5.45;nan;98892.75;5020605;28;19928;-87
2022/01/05 02:40:21;;;;;;;;;;;;;;;5.41;nan;98884.38;5031208;28;19929;-88
2022/01/05 02:42:47;;;;;;;;;;;;;;;5.42;nan;98882.59;5024591;28;19975;-88
2022/01/05 02:45:13;;;;;;;;;;;;;;;5.45;nan;98890.13;5022158;28;19926;-88
2022/01/05 02:47:38;;;;;;;;;;;;;;;5.45;nan;98897.97;5022044;28;19918;-88
2022/01/05 02:50:05;;;;;;;;;;;;;;;5.48;nan;98890.63;5020218;28;19925;-88
2022/01/05 02:52:31;;;;;;;;;;;;;;;5.47;nan;98880.31;5030166;28;19917;-88
2022/01/05 02:54:56;;;;;;;;;;;;;;;5.44;nan;98875.38;5030273;28;19929;-88
2022/01/05 02:57:22;;;;;;;;;;;;;;;5.40;nan;98901.06;5030678;28;19917;-88
2022/01/05 02:59:47;;;;;;;;;;;;;;;5.44;nan;98891.94;5024870;28;20395;-88
2022/01/05 03:02:13;;;;;;;;;;;;;;;5.48;nan;98892.41;5024651;28;20286;-88
2022/01/05 03:04:38;;;;;;;;;;;;;;;5.45;nan;98892.75;5022477;28;19976;-88
2022/01/05 03:07:03;;;;;;;;;;;;;;;5.49;nan;98891.44;5027291;28;19925;-88
2022/01/05 03:09:28;;;;;;;;;;;;;;;5.50;nan;98882.59;5028703;28;19921;-88
2022/01/05 03:11:54;;;;;;;;;;;;;;;5.48;nan;98884.53;5022094;28;19932;-88
2022/01/05 03:14:20;;;;;;;;;;;;;;;5.54;nan;98897.03;5025147;28;19917;-89
2022/01/05 03:16:45;;;;;;;;;;;;;;;5.43;nan;98892.06;5026811;28;19928;-88
2022/01/05 03:19:10;;;;;;;;;;;;;;;5.08;nan;98991.66;5023038;28;19927;-88
2022/01/05 03:21:35;;;;;;;;;;;;;;;3.88;nan;99005.16;5026887;28;20020;-87
2022/01/05 03:24:01;;;;;;;;;;;;;;;2.90;nan;99006.50;5031310;28;20032;-87
2022/01/05 03:26:26;;;;;;;;;;;;;;;2.63;nan;99010.66;5032100;28;20012;-86
2022/01/05 03:28:51;;;;;;;;;;;;;;;2.62;nan;99019.47;5031554;28;20020;-87
2022/01/05 03:31:17;;;;;;;;;;;;;;;2.43;nan;99016.81;5032416;28;19956;-87
2022/01/05 03:33:42;;;;;;;;;;;;;;;2.37;nan;99036.47;5037665;28;20379;-87
2022/01/05 03:36:07;;;;;;;;;;;;;;;2.37;nan;99046.91;5023305;28;20410;-87
2022/01/05 03:38:32;;;;;;;;;;;;;;;2.42;nan;99052.53;5031562;28;19917;-88
2022/01/05 03:40:58;;;;;;;;;;;;;;;2.24;nan;99048.94;5030760;28;19957;-88
2022/01/05 03:43:23;;;;;;;;;;;;;;;2.27;nan;99061.72;5029455;28;20279;-88
2022/01/05 03:45:49;;;;;;;;;;;;;;;2.27;nan;99062.53;5029167;28;19925;-87
2022/01/05 03:48:15;;;;;;;;;;;;;;;2.30;nan;99072.69;5023450;28;19975;-88
2022/01/05 03:50:43;;;;;;;;;;;;;;;2.24;nan;99085.44;5027708;28;20024;-87
2022/01/05 03:53:09;;;;;;;;;;;;;;;2.22;nan;99084.78;5029549;28;20018;-88
2022/01/05 03:55:36;;;;;;;;;;;;;;;2.32;nan;99098.66;5030700;28;19991;-88
2022/01/05 03:58:01;;;;;;;;;;;;;;;2.34;nan;99097.56;5030097;28;19928;-87
2022/01/05 04:00:29;;;;;;;;;;;;;;;2.30;nan;99103.19;5029158;28;20302;-88
2022/01/05 04:02:55;;;;;;;;;;;;;;;2.34;nan;99104.56;5026108;28;19925;-87
2022/01/05 04:05:20;;;;;;;;;;;;;;;2.38;nan;99118.16;5029675;28;19932;-87
2022/01/05 04:07:45;;;;;;;;;;;;;;;2.43;nan;99118.56;5031567;28;20023;-87
2022/01/05 04:10:10;;;;;;;;;;;;;;;2.31;nan;99129.13;5018948;28;19918;-87
2022/01/05 04:12:36;;;;;;;;;;;;;;;2.34;nan;99154.13;5024188;28;19925;-87
2022/01/05 04:15:02;;;;;;;;;;;;;;;2.29;nan;99172.78;5022161;28;19929;-87
2022/01/05 04:17:28;;;;;;;;;;;;;;;2.42;nan;99176.94;5032217;28;20287;-87
2022/01/05 04:19:53;;;;;;;;;;;;;;;2.38;nan;99185.97;5044965;28;19967;-88
2022/01/05 04:22:19;;;;;;;;;;;;;;;2.41;nan;99193.53;5047434;28;19917;-87
2022/01/05 04:24:44;;;;;;;;;;;;;;;2.35;nan;99194.88;5048536;28;19929;-87
2022/01/05 04:27:10;;;;;;;;;;;;;;;2.43;nan;99196.84;5048402;28;19939;-88
2022/01/05 04:29:35;;;;;;;;;;;;;;;2.41;nan;99199.59;5047906;28;19923;-88
2022/01/05 04:32:00;;;;;;;;;;;;;;;2.41;nan;99198.75;5049146;28;19928;-87
2022/01/05 04:34:26;;;;;;;;;;;;;;;2.42;nan;99206.44;5051749;28;19939;-87
2022/01/05 04:36:51;;;;;;;;;;;;;;;2.46;nan;99207.03;5052002;28;19917;-88
2022/01/05 04:39:16;;;;;;;;;;;;;;;2.47;nan;99213.88;5053769;28;19917;-89
2022/01/05 04:41:41;;;;;;;;;;;;;;;2.46;nan;99217.47;5053281;28;19917;-87
2022/01/05 04:44:07;;;;;;;;;;;;;;;2.54;nan;99225.44;5052276;28;19937;-90
2022/01/05 04:46:32;;;;;;;;;;;;;;;2.50;nan;99237.94;5053248;28;19917;-89
2022/01/05 04:48:57;;;;;;;;;;;;;;;2.57;nan;99246.03;5052119;28;19937;-89
2022/01/05 04:51:22;;;;;;;;;;;;;;;2.57;nan;99266.09;5051759;28;19938;-87
2022/01/05 04:53:48;;;;;;;;;;;;;;;2.59;nan;99279.84;5052636;28;19917;-90
2022/01/05 04:56:13;;;;;;;;;;;;;;;2.61;nan;99278.75;5054009;28;19937;-90
2022/01/05 04:58:38;;;;;;;;;;;;;;;2.70;nan;99282.38;5054622;28;20007;-88
2022/01/05 05:01:03;;;;;;;;;;;;;;;2.74;nan;99292.41;5052196;28;19923;-88
2022/01/05 05:03:29;;;;;;;;;;;;;;;2.73;nan;99289.94;5051538;28;19956;-88
2022/01/05 05:05:54;;;;;;;;;;;;;;;2.78;nan;99299.97;5052136;28;19988;-87
2022/01/05 05:08:19;;;;;;;;;;;;;;;2.82;nan;99302.19;5051108;28;19941;-89
2022/01/05 05:10:45;;;;;;;;;;;;;;;2.73;nan;99292.53;5051488;28;20052;-88
2022/01/05 05:13:10;;;;;;;;;;;;;;;2.73;nan;99297.75;5052183;28;20288;-89
2022/01/05 05:15:36;;;;;;;;;;;;;;;2.69;nan;99304.19;5051660;28;19977;-92
2022/01/05 05:18:01;;;;;;;;;;;;;;;2.65;nan;99308.03;5050817;28;19917;-88
2022/01/05 05:20:26;;;;;;;;;;;;;;;2.60;nan;99318.03;5051683;28;19917;-88
2022/01/05 05:22:52;;;;;;;;;;;;;;;2.61;nan;99320.50;5051915;28;19940;-86
2022/01/05 05:25:17;;;;;;;;;;;;;;;2.64;nan;99322.84;5038533;28;19921;-86
2022/01/05 05:27:42;;;;;;;;;;;;;;;2.60;nan;99334.53;5027292;28;19925;-86
2022/01/05 05:30:08;;;;;;;;;;;;;;;2.63;nan;99342.09;5037199;28;19921;-85
2022/01/05 05:32:33;;;;;;;;;;;;;;;2.66;nan;99349.66;5036415;28;20055;-86
2022/01/05 05:34:58;;;;;;;;;;;;;;;2.76;nan;99345.31;5035940;28;19949;-86
2022/01/05 05:37:23;;;;;;;;;;;;;;;2.78;nan;99349.56;5039839;28;20403;-86
2022/01/05 05:39:48;;;;;;;;;;;;;;;2.69;nan;99351.16;5032047;28;19928;-86
2022/01/05 05:42:14;;;;;;;;;;;;;;;2.64;nan;99361.19;5030962;28;19964;-86
2022/01/05 05:44:39;;;;;;;;;;;;;;;2.61;nan;99362.25;5027713;28;20341;-85
2022/01/05 05:47:05;;;;;;;;;;;;;;;2.63;nan;99369.97;5020944;28;20378;-86
2022/01/05 05:49:31;;;;;;;;;;;;;;;2.63;nan;99372.59;5027142;28;19977;-85
2022/01/05 05:51:56;;;;;;;;;;;;;;;2.68;nan;99373.03;5032846;28;19921;-87
2022/01/05 05:54:21;;;;;;;;;;;;;;;2.67;nan;99380.03;5034170;28;19925;-88
2022/01/05 05:56:46;;;;;;;;;;;;;;;2.64;nan;99377.66;5035148;28;19929;-87
2022/01/05 05:59:11;;;;;;;;;;;;;;;2.62;nan;99374.38;5024060;28;19960;-86
2022/01/05 06:01:37;;;;;;;;;;;;;;;2.58;nan;99372.97;5034520;28;19949;-88
2022/01/05 06:04:02;;;;;;;;;;;;;;;2.47;nan;99378.25;5050696;28;19924;-92
2022/01/05 06:06:28;;;;;;;;;;;;;;;2.49;nan;99382.38;5050694;28;19928;-89
2022/01/05 06:08:53;;;;;;;;;;;;;;;2.42;nan;99381.25;5051689;28;19921;-89
2022/01/05 06:11:18;;;;;;;;;;;;;;;2.53;nan;99388.19;5051958;28;19940;-90
2022/01/05 06:13:44;;;;;;;;;;;;;;;2.52;nan;99392.56;5050797;28;20417;-89
2022/01/05 06:16:09;;;;;;;;;;;;;;;2.48;nan;99393.78;5050773;28;19917;-88
2022/01/05 06:18:34;;;;;;;;;;;;;;;2.51;nan;99403.97;5045669;28;19993;-87
2022/01/05 06:20:59;;;;;;;;;;;;;;;2.48;nan;99403.38;5032893;28;19921;-87
2022/01/05 06:23:25;;;;;;;;;;;;;;;2.50;nan;99419.75;5029154;28;19948;-87
2022/01/05 06:25:50;;;;;;;;;;;;;;;2.47;nan;99427.81;5034178;28;19971;-87
2022/01/05 06:28:15;;;;;;;;;;;;;;;2.45;nan;99432.34;5032454;28;20426;-87
2022/01/05 06:30:41;;;;;;;;;;;;;;;2.34;nan;99433.25;5033811;28;19921;-87
2022/01/05 06:33:06;;;;;;;;;;;;;;;2.29;nan;99444.06;5032353;28;20291;-86
2022/01/05 06:35:32;;;;;;;;;;;;;;;2.33;nan;99452.44;5034144;28;19980;-86
2022/01/05 06:37:57;;;;;;;;;;;;;;;2.27;nan;99461.59;5033662;28;19925;-86
2022/01/05 06:40:23;;;;;;;;;;;;;;;2.30;nan;99463.13;5029416;28;19921;-86
2022/01/05 06:42:48;;;;;;;;;;;;;;;2.27;nan;99466.00;5031073;28;19928;-87
2022/01/05 06:45:14;;;;;;;;;;;;;;;2.23;nan;99481.06;5044912;28;19927;-86
2022/01/05 06:47:39;;;;;;;;;;;;;;;2.08;nan;99484.91;5037751;28;19921;-86
2022/01/05 06:50:05;;;;;;;;;;;;;;;2.16;nan;99498.16;5030518;28;19921;-86
2022/01/05 06:52:30;;;;;;;;;;;;;;;2.03;nan;99500.09;5032565;28;19927;-86
2022/01/05 06:54:55;;;;;;;;;;;;;;;2.07;nan;99509.31;5033816;28;19921;-87
2022/01/05 06:57:21;;;;;;;;;;;;;;;2.00;nan;99518.56;5029222;28;20240;-87
2022/01/05 06:59:46;;;;;;;;;;;;;;;2.07;nan;99524.97;5032785;28;19921;-87
2022/01/05 07:02:11;;;;;;;;;;;;;;;1.91;nan;99536.63;5031363;28;19921;-87
2022/01/05 07:04:36;;;;;;;;;;;;;;;1.98;nan;99541.31;5036826;28;19983;-87
2022/01/05 07:07:02;;;;;;;;;;;;;;;1.97;nan;99544.91;5029051;28;19947;-86
2022/01/05 07:09:27;;;;;;;;;;;;;;;1.97;nan;99561.38;5042416;28;19943;-87
2022/01/05 07:11:52;;;;;;;;;;;;;;;1.99;nan;99556.88;5047964;28;19921;-86
2022/01/05 07:14:18;;;;;;;;;;;;;;;1.93;nan;99565.16;5045427;28;19940;-88
2022/01/05 07:16:43;;;;;;;;;;;;;;;1.86;nan;99571.78;5046617;28;19964;-86
2022/01/05 07:19:10;;;;;;;;;;;;;;;1.69;nan;99558.31;5042425;28;19917;-87
2022/01/05 07:21:35;;;;;;;;;;;;;;;1.73;nan;99565.91;5044337;28;19967;-87
2022/01/05 07:24:01;;;;;;;;;;;;;;;1.52;nan;99569.19;5045969;28;19917;-88
2022/01/05 07:26:27;;;;;;;;;;;;;;;1.46;nan;99578.31;5061663;28;19940;-86
2022/01/05 07:28:53;;;;;;;;;;;;;;;1.37;nan;99589.44;5025675;28;19925;-88
2022/01/05 07:31:18;;;;;;;;;;;;;;;1.28;nan;99606.56;5026656;28;19924;-88
2022/01/05 07:33:43;;;;;;;;;;;;;;;1.25;nan;99603.38;5031213;28;19923;-87
2022/01/05 07:36:08;;;;;;;;;;;;;;;1.16;nan;99606.66;5032146;28;19921;-87
2022/01/05 07:38:34;;;;;;;;;;;;;;;1.13;nan;99617.31;5026512;28;19932;-87
2022/01/05 07:40:59;;;;;;;;;;;;;;;1.09;nan;99618.47;5033660;28;20016;-87
2022/01/05 07:43:24;;;;;;;;;;;;;;;0.94;nan;99623.06;5024548;28;19921;-87
2022/01/05 07:45:49;;;;;;;;;;;;;;;1.00;nan;99618.22;5026800;28;19932;-88
2022/01/05 07:48:14;;;;;;;;;;;;;;;0.96;nan;99627.19;5016342;28;19982;-87
2022/01/05 07:50:40;;;;;;;;;;;;;;;0.84;nan;99630.69;5030848;28;19921;-87
2022/01/05 07:53:05;;;;;;;;;;;;;;;0.84;nan;99638.50;5023151;28;19986;-87
2022/01/05 07:55:31;;;;;;;;;;;;;;;0.93;nan;99643.06;5027591;28;20024;-88
2022/01/05 07:57:58;;;;;;;;;;;;;;;0.94;nan;99646.47;5030643;28;19956;-87
2022/01/05 08:00:23;;;;;;;;;;;;;;;1.01;nan;99650.28;5022958;28;20359;-89
2022/01/05 08:02:49;;;;;;;;;;;;;;;1.04;nan;99650.06;5023178;28;19924;-90
2022/01/05 08:05:14;;;;;;;;;;;;;;;1.11;nan;99660.84;5023783;28;19941;-91
2022/01/05 08:07:39;;;;;;;;;;;;;;;1.08;nan;99663.69;5025641;28;19921;-89
2022/01/05 08:10:05;;;;;;;;;;;;;;;1.21;nan;99669.66;5026743;28;20042;-88
2022/01/05 08:12:30;;;;;;;;;;;;;;;1.28;nan;99668.25;5026789;28;19918;-87
2022/01/05 08:14:55;;;;;;;;;;;;;;;1.25;nan;99679.72;5027596;28;19917;-86
2022/01/05 08:17:20;;;;;;;;;;;;;;;1.28;nan;99679.50;5027767;28;19941;-89
2022/01/05 08:19:46;;;;;;;;;;;;;;;1.23;nan;99681.59;5027235;28;19917;-86
2022/01/05 08:22:11;;;;;;;;;;;;;;;1.18;nan;99682.91;5026444;28;20371;-89
2022/01/05 08:24:37;;;;;;;;;;;;;;;1.09;nan;99691.38;5025022;28;20038;-87
2022/01/05 08:27:02;;;;;;;;;;;;;;;1.11;nan;99685.13;5025203;28;20068;-88
2022/01/05 08:29:27;;;;;;;;;;;;;;;1.04;nan;99689.94;5022150;28;20395;-86
2022/01/05 08:31:52;;;;;;;;;;;;;;;1.05;nan;99699.41;5032729;28;19925;-87
2022/01/05 08:34:18;;;;;;;;;;;;;;;1.04;nan;99700.34;5035947;28;19921;-87
2022/01/05 08:36:43;;;;;;;;;;;;;;;1.11;nan;99694.72;5036508;28;19921;-87
2022/01/05 08:39:08;;;;;;;;;;;;;;;1.13;nan;99704.06;5035317;28;19921;-87
2022/01/05 08:41:33;;;;;;;;;;;;;;;1.10;nan;99711.25;5038642;28;19929;-87
2022/01/05 08:43:59;;;;;;;;;;;;;;;1.14;nan;99708.31;5026086;28;20401;-87
2022/01/05 08:46:24;;;;;;;;;;;;;;;1.02;nan;99704.00;5035281;28;19921;-86
2022/01/05 08:48:49;;;;;;;;;;;;;;;1.02;nan;99704.81;5036495;28;19952;-88
2022/01/05 08:51:14;;;;;;;;;;;;;;;1.07;nan;99709.69;5023192;28;19944;-87
2022/01/05 08:53:40;;;;;;;;;;;;;;;1.06;nan;99718.47;5031438;28;20303;-86
2022/01/05 08:56:07;;;;;;;;;;;;;;;1.06;nan;99726.28;5030293;28;20406;-87
2022/01/05 08:58:33;;;;;;;;;;;;;;;1.03;nan;99723.91;5037010;28;19917;-87
2022/01/05 09:00:58;;;;;;;;;;;;;;;1.05;nan;99729.84;5035426;28;20013;-87
2022/01/05 09:03:24;;;;;;;;;;;;;;;1.04;nan;99738.56;5031676;28;19928;-87
2022/01/05 09:05:49;;;;;;;;;;;;;;;1.14;nan;99739.56;5031850;28;19925;-86
2022/01/05 09:08:14;;;;;;;;;;;;;;;1.17;nan;99744.56;5034630;28;19944;-86
2022/01/05 09:10:39;;;;;;;;;;;;;;;1.14;nan;99751.75;5037021;28;19921;-86
2022/01/05 09:13:06;;;;;;;;;;;;;;;1.20;nan;99749.53;5037919;28;19925;-86
2022/01/05 09:15:33;;;;;;;;;;;;;;;1.12;nan;99749.28;5035798;28;19928;-86
2022/01/05 09:17:59;;;;;;;;;;;;;;;1.13;nan;99750.94;5032205;28;20144;-86
2022/01/05 09:20:24;;;;;;;;;;;;;;;1.12;nan;99745.81;5034266;28;20486;-86
2022/01/05 09:22:49;;;;;;;;;;;;;;;1.14;nan;99752.59;5032295;28;20179;-87
2022/01/05 09:25:18;;;;;;;;;;;;;;;1.13;nan;99747.50;5029204;28;19933;-86
2022/01/05 09:27:43;;;;;;;;;;;;;;;1.16;nan;99753.31;5018405;28;19979;-86
2022/01/05 09:30:11;;;;;;;;;;;;;;;1.16;nan;99747.28;5032289;28;20406;-86
2022/01/05 09:32:36;;;;;;;;;;;;;;;1.14;nan;99756.97;5023168;28;19921;-86
2022/01/05 09:35:02;;;;;;;;;;;;;;;1.18;nan;99761.84;5026982;28;19926;-86
2022/01/05 09:37:32;;;;;;;;;;;;;;;1.24;nan;99768.38;5034998;28;20425;-87
2022/01/05 09:42:41;;;;;;;;;;;;;;;1.26;nan;99772.56;5025155;28;19948;-86
2022/01/05 09:45:12;;;;;;;;;;;;;;;1.35;nan;99763.22;5035775;28;20016;-86
2022/01/05 09:47:47;;;;;;;;;;;;;;;1.37;nan;99763.94;5010411;28;19925;-86
2022/01/05 09:50:13;;;;;;;;;;;;;;;1.34;nan;99776.38;5017751;28;20019;-86
2022/01/05 09:52:39;;;;;;;;;;;;;;;1.39;nan;99789.91;5011210;28;19918;-88
2022/01/05 09:55:08;;;;;;;;;;;;;;;1.40;nan;99779.34;5026219;28;19924;-88
2022/01/05 09:57:34;;;;;;;;;;;;;;;1.46;nan;99789.34;5029945;28;19925;-87
2022/01/05 09:59:59;;;;;;;;;;;;;;;1.49;nan;99788.28;5020796;28;20016;-86
2022/01/05 10:02:25;;;;;;;;;;;;;;;1.56;nan;99793.88;5017125;28;19928;-86
2022/01/05 10:04:51;;;;;;;;;;;;;;;1.68;nan;99790.38;4997688;28;19932;-86
2022/01/05 10:07:16;;;;;;;;;;;;;;;1.64;nan;99794.13;5004745;28;19917;-86
2022/01/05 10:09:42;;;;;;;;;;;;;;;1.73;nan;99790.03;5017595;28;19917;-87
2022/01/05 10:12:08;;;;;;;;;;;;;;;1.82;nan;99798.00;5017836;28;19921;-87
2022/01/05 10:14:33;;;;;;;;;;;;;;;1.86;nan;99804.66;5017732;28;19967;-85
2022/01/05 10:17:00;;;;;;;;;;;;;;;1.94;nan;99817.13;5035854;28;19924;-86
2022/01/05 10:19:25;;;;;;;;;;;;;;;2.07;nan;99811.81;5027440;28;19927;-87
2022/01/05 10:21:50;;;;;;;;;;;;;;;2.05;nan;99824.13;5022219;28;19941;-86
2022/01/05 10:24:16;;;;;;;;;;;;;;;2.08;nan;99824.72;5015191;28;19918;-87
2022/01/05 10:26:41;;;;;;;;;;;;;;;2.14;nan;99833.88;5015930;28;20024;-87
2022/01/05 10:29:13;;;;;;;;;;;;;;;2.11;nan;99829.72;5015187;28;19918;-86
2022/01/05 10:31:39;;;;;;;;;;;;;;;2.07;nan;99843.09;5015200;28;19918;-86
2022/01/05 10:34:18;;;;;;;;;;;;;;;2.13;nan;99837.44;5015468;28;19918;-86
2022/01/05 10:36:43;;;;;;;;;;;;;;;2.08;nan;99840.38;5018207;28;20314;-87
2022/01/05 10:39:08;;;;;;;;;;;;;;;1.98;nan;99842.03;5016065;28;19918;-87
2022/01/05 10:41:36;;;;;;;;;;;;;;;1.98;nan;99839.41;5015535;28;19917;-89
2022/01/05 10:44:10;;;;;;;;;;;;;;;1.95;nan;99844.00;5015420;28;19925;-87
2022/01/05 10:46:37;;;;;;;;;;;;;;;2.00;nan;99840.13;5016154;28;19937;-91
2022/01/05 10:49:04;;;;;;;;;;;;;;;2.17;nan;99844.09;5016446;28;20004;-89
2022/01/05 10:51:31;;;;;;;;;;;;;;;2.28;nan;99845.88;5014965;28;19925;-89
2022/01/05 10:54:09;;;;;;;;;;;;;;;2.33;nan;99849.78;5014780;28;19963;-89
2022/01/05 10:56:34;;;;;;;;;;;;;;;2.49;nan;99859.91;5031177;28;19917;-89
2022/01/05 10:58:59;;;;;;;;;;;;;;;2.54;nan;99846.50;5014853;28;19918;-88
2022/01/05 11:01:28;;;;;;;;;;;;;;;2.54;nan;99849.94;5014995;28;19917;-89
2022/01/05 11:03:53;;;;;;;;;;;;;;;2.48;nan;99862.63;5013586;28;20398;-88
2022/01/05 11:06:19;;;;;;;;;;;;;;;2.50;nan;99855.50;5025159;28;20008;-88
2022/01/05 11:08:56;;;;;;;;;;;;;;;2.67;nan;99849.84;5004625;28;20205;-89
2022/01/05 11:11:35;;;;;;;;;;;;;;;2.63;nan;99861.47;5006679;28;19921;-89
2022/01/05 11:14:01;;;;;;;;;;;;;;;2.57;nan;99869.75;5011459;28;20423;-88
2022/01/05 11:16:29;;;;;;;;;;;;;;;2.58;nan;99868.84;4994215;28;19952;-89
2022/01/05 11:19:13;;;;;;;;;;;;;;;2.54;nan;99868.22;5011127;28;19944;-89
2022/01/05 11:21:39;;;;;;;;;;;;;;;2.58;nan;99868.00;5002162;28;19989;-88
2022/01/05 11:24:05;;;;;;;;;;;;;;;2.63;nan;99861.47;5014342;28;19969;-88
2022/01/05 11:26:31;;;;;;;;;;;;;;;2.64;nan;99857.09;5008081;28;19921;-88
2022/01/05 11:28:56;;;;;;;;;;;;;;;2.71;nan;99858.28;4995548;28;20518;-88
2022/01/05 11:31:22;;;;;;;;;;;;;;;2.74;nan;99863.25;5013406;28;19982;-88
2022/01/05 11:33:47;;;;;;;;;;;;;;;2.78;nan;99862.06;4995830;28;19973;-89
2022/01/05 11:36:12;;;;;;;;;;;;;;;2.82;nan;99862.69;4991588;28;19925;-88
2022/01/05 11:38:38;;;;;;;;;;;;;;;2.92;nan;99869.66;5016246;28;19921;-88
2022/01/05 11:41:03;;;;;;;;;;;;;;;2.86;nan;99878.00;4997276;28;20016;-88
2022/01/05 11:43:32;;;;;;;;;;;;;;;2.79;nan;99876.81;5007532;28;20434;-88
2022/01/05 11:45:58;;;;;;;;;;;;;;;2.81;nan;99874.06;5010274;28;19932;-88
2022/01/05 11:48:33;;;;;;;;;;;;;;;2.68;nan;99877.63;4997558;28;19921;-87
2022/01/05 11:50:59;;;;;;;;;;;;;;;2.70;nan;99882.72;5006385;28;19937;-87
2022/01/05 11:53:31;;;;;;;;;;;;;;;2.75;nan;99883.19;4993978;28;20354;-87
2022/01/05 11:55:59;;;;;;;;;;;;;;;2.72;nan;99886.06;5015961;28;19921;-88
2022/01/05 11:58:28;;;;;;;;;;;;;;;2.84;nan;99874.66;5010284;28;19948;-88
2022/01/05 12:01:12;;;;;;;;;;;;;;;2.72;nan;99871.22;5012728;28;20358;-87
2022/01/05 12:03:59;;;;;;;;;;;;;;;2.78;nan;99876.91;4982783;28;20455;-87
2022/01/05 12:06:26;;;;;;;;;;;;;;;2.81;nan;99880.09;5012003;28;20169;-87
2022/01/05 12:08:52;;;;;;;;;;;;;;;2.92;nan;99880.13;4988976;28;19922;-87
2022/01/05 12:11:35;;;;;;;;;;;;;;;2.79;nan;99875.94;5008203;28;19922;-87
2022/01/05 12:14:03;;;;;;;;;;;;;;;2.76;nan;99877.88;5008717;28;20180;-87
2022/01/05 12:16:29;;;;;;;;;;;;;;;2.72;nan;99881.66;4988679;28;20388;-87
2022/01/05 12:19:07;;;;;;;;;;;;;;;2.66;nan;99878.69;5008734;28;19922;-87
2022/01/05 12:21:43;;;;;;;;;;;;;;;2.69;nan;99888.88;5000972;28;19926;-88
2022/01/05 12:24:08;;;;;;;;;;;;;;;2.71;nan;99890.41;4979485;28;19917;-87
2022/01/05 12:26:34;;;;;;;;;;;;;;;2.73;nan;99898.97;4979717;28;19925;-88
2022/01/05 12:29:02;;;;;;;;;;;;;;;2.78;nan;99895.19;4981256;28;19917;-88
2022/01/05 12:31:46;;;;;;;;;;;;;;;2.77;nan;99894.38;4983034;28;19918;-87
2022/01/05 12:34:11;;;;;;;;;;;;;;;2.88;nan;99906.59;4980408;28;19918;-88
2022/01/05 12:36:38;;;;;;;;;;;;;;;2.73;nan;99909.41;4980472;28;19965;-89
2022/01/05 12:39:07;;;;;;;;;;;;;;;2.68;nan;99908.94;4980313;28;20299;-88
2022/01/05 12:41:34;;;;;;;;;;;;;;;2.71;nan;99908.69;4980266;28;19961;-88
2022/01/05 12:44:04;;;;;;;;;;;;;;;2.63;nan;99910.25;4980533;28;19918;-87
2022/01/05 12:46:35;;;;;;;;;;;;;;;2.65;nan;99913.56;4999551;28;19975;-88
2022/01/05 12:49:03;;;;;;;;;;;;;;;2.60;nan;99905.22;5000141;28;20401;-90
2022/01/05 12:51:44;;;;;;;;;;;;;;;2.68;nan;99915.94;4999696;28;19968;-88
2022/01/05 12:54:11;;;;;;;;;;;;;;;2.71;nan;99919.13;5001442;28;19921;-88
2022/01/05 12:56:42;;;;;;;;;;;;;;;2.70;nan;99919.28;5004573;28;19958;-88
2022/01/05 12:59:10;;;;;;;;;;;;;;;2.62;nan;99917.25;5011934;28;19921;-89
2022/01/05 13:01:35;;;;;;;;;;;;;;;2.60;nan;99921.75;5033502;28;19917;-89
2022/01/05 13:04:05;;;;;;;;;;;;;;;2.60;nan;99926.13;5006099;28;19979;-86
2022/01/05 13:06:32;;;;;;;;;;;;;;;2.59;nan;99927.06;5001952;28;19921;-87
2022/01/05 13:09:05;;;;;;;;;;;;;;;2.60;nan;99924.34;5019162;28;19917;-88
2022/01/05 13:11:40;;;;;;;;;;;;;;;2.62;nan;99924.22;5018906;28;19921;-88
2022/01/05 13:14:17;;;;;;;;;;;;;;;2.58;nan;99930.66;5017487;28;20403;-88
2022/01/05 13:16:44;;;;;;;;;;;;;;;2.56;nan;99928.13;5019221;28;19921;-87